Time;durP1;ratioP1;P1;durP2;ratioP2;P2;SDS_P1;SDS_P2;PMS_P1;PMS_P2;Temp;Humidity;BMP_temperature;BMP_pressure;BME280_temperature;BME280_humidity;BME280_pressure;Samples;Min_cycle;Max_cycle;Signal;HPM_P1;HPM_P2
2022/11/30 00:00:34;;;;;;;123.78;29.52;;;;;;;5.98;100.00;102157.16;5010171;28;20120;-94
2022/11/30 00:02:59;;;;;;;122.40;30.55;;;;;;;5.98;100.00;102156.38;5015219;28;20069;-94
2022/11/30 00:05:25;;;;;;;122.63;31.17;;;;;;;5.96;100.00;102159.19;5019850;28;20033;-94
2022/11/30 00:07:50;;;;;;;120.73;30.03;;;;;;;5.96;100.00;102155.72;5019663;28;20378;-93
2022/11/30 00:10:15;;;;;;;118.50;29.80;;;;;;;5.93;100.00;102148.97;5010680;28;20513;-93
2022/11/30 00:12:41;;;;;;;121.10;29.30;;;;;;;5.95;100.00;102154.88;5010683;28;20030;-93
2022/11/30 00:15:11;;;;;;;117.83;30.17;;;;;;;5.96;100.00;102155.72;5010616;28;20036;-94
2022/11/30 00:17:36;;;;;;;109.55;27.75;;;;;;;5.96;100.00;102153.88;5010841;28;20474;-93
2022/11/30 00:20:01;;;;;;;118.23;29.67;;;;;;;5.96;100.00;102153.06;5010270;28;20033;-92
2022/11/30 00:22:27;;;;;;;112.27;29.40;;;;;;;5.96;100.00;102158.38;5013121;28;20428;-93
2022/11/30 00:24:52;;;;;;;108.23;28.40;;;;;;;5.90;100.00;102146.69;5012519;28;20029;-93
2022/11/30 00:27:17;;;;;;;109.50;28.50;;;;;;;5.97;100.00;102160.03;5026213;28;20037;-93
2022/11/30 00:29:43;;;;;;;100.57;27.63;;;;;;;5.97;100.00;102170.69;5034417;28;20030;-93
2022/11/30 00:32:08;;;;;;;96.77;26.70;;;;;;;5.96;100.00;102161.84;5017134;28;20026;-94
2022/11/30 00:34:33;;;;;;;96.43;25.60;;;;;;;5.96;100.00;102153.88;5015394;28;20052;-93
2022/11/30 00:36:58;;;;;;;102.27;25.57;;;;;;;5.96;100.00;102155.72;5016602;28;20037;-93
2022/11/30 00:39:24;;;;;;;105.90;27.17;;;;;;;5.98;100.00;102167.00;5017724;28;20037;-94
2022/11/30 00:41:49;;;;;;;91.30;25.40;;;;;;;5.97;100.00;102158.19;5014457;28;20045;-93
2022/11/30 00:44:14;;;;;;;94.90;25.67;;;;;;;5.94;100.00;102166.56;5022412;28;20052;-93
2022/11/30 00:46:40;;;;;;;102.07;26.40;;;;;;;5.97;100.00;102162.69;5022483;28;20422;-92
2022/11/30 00:49:05;;;;;;;100.00;25.00;;;;;;;5.98;100.00;102157.16;5014777;28;20026;-93
2022/11/30 00:51:30;;;;;;;96.23;25.70;;;;;;;5.95;100.00;102162.88;5012979;28;20109;-93
2022/11/30 00:53:55;;;;;;;80.97;23.73;;;;;;;5.92;100.00;102155.31;5013706;28;20112;-93
2022/11/30 00:56:21;;;;;;;89.47;23.30;;;;;;;5.88;100.00;102149.53;5012942;28;20110;-93
2022/11/30 00:58:46;;;;;;;96.20;25.00;;;;;;;5.98;100.00;102172.31;5010770;28;20040;-92
2022/11/30 01:01:11;;;;;;;86.93;24.00;;;;;;;5.96;100.00;102171.69;5012935;28;20053;-92
2022/11/30 01:03:37;;;;;;;97.50;25.37;;;;;;;5.89;100.00;102159.16;5013569;28;20026;-93
2022/11/30 01:06:04;;;;;;;91.80;25.70;;;;;;;5.98;100.00;102173.13;5012290;28;20080;-93
2022/11/30 01:08:30;;;;;;;94.37;24.37;;;;;;;5.96;100.00;102174.34;4993591;28;20273;-93
2022/11/30 01:10:56;;;;;;;90.43;25.30;;;;;;;5.93;100.00;102170.25;4992483;28;20398;-93
2022/11/30 01:13:22;;;;;;;78.15;23.67;;;;;;;5.96;100.00;102179.69;4993795;28;20043;-93
2022/11/30 01:15:48;;;;;;;87.60;24.20;;;;;;;5.95;100.00;102175.38;5013916;28;20497;-93
2022/11/30 01:18:13;;;;;;;82.63;24.07;;;;;;;5.94;100.00;102177.19;5017689;28;20324;-92
2022/11/30 01:20:41;;;;;;;80.40;22.33;;;;;;;5.97;100.00;102178.66;5031913;28;20049;-91
2022/11/30 01:23:06;;;;;;;87.78;24.15;;;;;;;5.96;100.00;102172.50;5016301;28;20028;-92
2022/11/30 01:25:31;;;;;;;76.70;22.10;;;;;;;5.93;100.00;102172.06;5014545;28;20384;-92
2022/11/30 01:27:56;;;;;;;85.03;23.63;;;;;;;5.91;100.00;102173.09;5019752;28;20030;-93
2022/11/30 01:30:22;;;;;;;79.80;22.57;;;;;;;5.89;100.00;102175.13;5012932;28;20037;-93
2022/11/30 01:32:47;;;;;;;82.00;23.57;;;;;;;5.89;100.00;102182.28;5011461;28;20117;-92
2022/11/30 01:35:12;;;;;;;78.57;22.53;;;;;;;5.84;100.00;102172.22;5012709;28;20022;-92
2022/11/30 01:37:37;;;;;;;77.47;23.03;;;;;;;5.85;100.00;102168.53;5013180;28;20478;-93
2022/11/30 01:40:03;;;;;;;84.13;22.37;;;;;;;5.83;100.00;102177.72;5011281;28;20025;-92
2022/11/30 01:42:29;;;;;;;75.50;22.42;;;;;;;5.80;100.00;102176.28;5012762;28;20493;-92
2022/11/30 01:44:56;;;;;;;79.20;23.43;;;;;;;5.74;100.00;102174.38;5011752;28;20030;-92
2022/11/30 01:47:41;;;;;;;74.97;22.48;;;;;;;5.70;100.00;102171.28;5011344;28;20037;-93
2022/11/30 01:50:16;;;;;;;74.00;22.35;;;;;;;5.69;100.00;102185.59;5009927;28;20596;-92
2022/11/30 01:52:49;;;;;;;75.50;22.23;;;;;;;5.65;100.00;102183.53;5011119;28;20036;-93
2022/11/30 01:55:22;;;;;;;75.35;21.83;;;;;;;5.67;100.00;102182.31;5011076;28;20366;-93
2022/11/30 01:57:52;;;;;;;76.33;23.43;;;;;;;5.68;100.00;102191.94;5011916;28;20048;-93
2022/11/30 02:00:18;;;;;;;74.97;21.73;;;;;;;5.73;100.00;102191.34;5010367;28;20331;-93
2022/11/30 02:02:55;;;;;;;78.22;23.05;;;;;;;5.75;100.00;102198.13;5010150;28;20037;-93
2022/11/30 02:05:23;;;;;;;80.82;22.52;;;;;;;5.78;100.00;102210.22;4995395;28;20018;-93
2022/11/30 02:07:48;;;;;;;74.10;22.77;;;;;;;5.80;100.00;102194.91;4992269;28;20129;-94
2022/11/30 02:10:17;;;;;;;68.03;22.03;;;;;;;5.82;100.00;102202.69;4991695;28;20120;-93
2022/11/30 02:13:04;;;;;;;72.45;21.70;;;;;;;5.83;100.00;102202.50;4993344;28;20022;-92
2022/11/30 02:15:39;;;;;;;65.97;20.90;;;;;;;5.82;100.00;102200.03;4997422;28;20493;-93
2022/11/30 02:18:29;;;;;;;66.60;20.95;;;;;;;5.85;100.00;102191.66;5012057;28;20026;-93
2022/11/30 02:20:59;;;;;;;61.22;19.30;;;;;;;5.85;100.00;102195.13;4993611;28;20030;-93
2022/11/30 02:23:35;;;;;;;73.23;21.17;;;;;;;5.85;100.00;102199.66;5011849;28;20041;-94
2022/11/30 02:26:06;;;;;;;63.40;20.50;;;;;;;5.85;100.00;102197.00;5011286;28;20030;-92
2022/11/30 02:28:55;;;;;;;65.07;19.63;;;;;;;5.86;100.00;102196.78;5010351;28;20461;-92
2022/11/30 02:31:28;;;;;;;66.20;19.80;;;;;;;5.85;100.00;102204.97;5012791;28;20117;-92
2022/11/30 02:33:56;;;;;;;56.15;19.25;;;;;;;5.83;100.00;102202.50;5011972;28;20104;-93
2022/11/30 02:36:22;;;;;;;64.00;19.95;;;;;;;5.84;100.00;102198.00;5011812;28;20451;-94
2022/11/30 02:38:48;;;;;;;54.80;18.00;;;;;;;5.82;100.00;102192.03;5010843;28;20485;-94
2022/11/30 02:41:13;;;;;;;56.73;18.33;;;;;;;5.84;100.00;102204.13;5004027;28;20325;-93
2022/11/30 02:43:39;;;;;;;50.20;18.53;;;;;;;5.76;100.00;102196.31;4992088;28;20478;-94
2022/11/30 02:46:19;;;;;;;51.00;18.42;;;;;;;5.83;100.00;102205.16;4996359;28;20088;-93
2022/11/30 02:49:06;;;;;;;51.97;17.95;;;;;;;5.85;100.00;102211.09;5010948;28;20022;-93
2022/11/30 02:51:35;;;;;;;56.93;17.87;;;;;;;5.84;100.00;102206.78;5010402;28;20048;-92
2022/11/30 02:54:01;;;;;;;53.67;17.57;;;;;;;5.81;100.00;102196.56;5006159;28;20756;-93
2022/11/30 02:56:27;;;;;;;54.05;17.85;;;;;;;5.79;100.00;102206.56;5013443;28;20052;-91
2022/11/30 02:58:52;;;;;;;49.20;17.67;;;;;;;5.82;100.00;102216.00;5011670;28;20072;-92
2022/11/30 03:01:17;;;;;;;56.13;17.43;;;;;;;5.80;100.00;102202.06;5005477;28;20395;-92
2022/11/30 03:03:43;;;;;;;49.23;17.10;;;;;;;5.81;100.00;102215.19;4998808;28;20042;-91
2022/11/30 03:06:09;;;;;;;43.03;17.58;;;;;;;5.82;100.00;102214.16;5006101;28;20040;-93
2022/11/30 03:08:34;;;;;;;49.60;16.90;;;;;;;5.82;100.00;102208.84;5004348;28;20030;-93
2022/11/30 03:11:03;;;;;;;48.97;17.20;;;;;;;5.80;100.00;102218.84;5013987;28;20044;-90
2022/11/30 03:13:30;;;;;;;50.67;17.25;;;;;;;5.79;100.00;102211.88;5017247;28;20034;-89
2022/11/30 03:15:57;;;;;;;46.90;17.08;;;;;;;5.81;100.00;102209.84;5020999;28;20030;-89
2022/11/30 03:18:22;;;;;;;47.25;16.55;;;;;;;5.77;100.00;102208.59;5019315;28;20045;-91
2022/11/30 03:20:47;;;;;;;49.53;17.10;;;;;;;5.78;100.00;102210.22;5011482;28;20042;-92
2022/11/30 03:23:12;;;;;;;54.77;17.80;;;;;;;5.76;100.00;102220.25;5006825;28;20036;-91
2022/11/30 03:25:38;;;;;;;47.40;17.80;;;;;;;5.76;100.00;102212.25;5012232;28;20036;-91
2022/11/30 03:28:03;;;;;;;43.87;16.87;;;;;;;5.73;100.00;102210.81;5011612;28;20287;-92
2022/11/30 03:30:28;;;;;;;45.67;17.35;;;;;;;5.75;100.00;102215.94;5010004;28;20037;-91
2022/11/30 03:32:54;;;;;;;43.93;16.13;;;;;;;5.74;100.00;102214.28;5011314;28;20069;-91
2022/11/30 03:35:19;;;;;;;43.67;15.93;;;;;;;5.72;100.00;102211.00;5012475;28;20053;-92
2022/11/30 03:37:46;;;;;;;43.17;16.07;;;;;;;5.71;100.00;102214.66;5010394;28;20033;-91
2022/11/30 03:40:11;;;;;;;43.50;15.95;;;;;;;5.66;100.00;102211.78;5008920;28;20030;-91
2022/11/30 03:42:37;;;;;;;43.08;16.92;;;;;;;5.60;100.00;102218.66;5012186;28;20088;-92
2022/11/30 03:45:02;;;;;;;40.00;16.13;;;;;;;5.54;100.00;102211.44;5011840;28;20022;-91
2022/11/30 03:47:28;;;;;;;48.15;17.48;;;;;;;5.51;100.00;102215.28;5007553;28;20031;-92
2022/11/30 03:49:53;;;;;;;40.00;15.40;;;;;;;5.48;100.00;102217.53;4996271;28;20069;-92
2022/11/30 03:52:18;;;;;;;39.20;15.67;;;;;;;5.45;100.00;102216.06;5011794;28;20758;-93
2022/11/30 03:54:44;;;;;;;38.50;15.37;;;;;;;5.45;100.00;102216.06;5011490;28;20026;-92
2022/11/30 03:57:09;;;;;;;35.97;15.93;;;;;;;5.50;100.00;102228.78;5014209;28;20405;-92
2022/11/30 03:59:34;;;;;;;47.47;17.20;;;;;;;5.50;100.00;102220.81;5013618;28;20033;-91
2022/11/30 04:01:59;;;;;;;47.77;16.33;;;;;;;5.52;100.00;102227.56;5014218;28;20041;-92
2022/11/30 04:04:25;;;;;;;48.53;17.17;;;;;;;5.51;100.00;102225.94;5015085;28;20033;-92
2022/11/30 04:06:50;;;;;;;43.77;17.03;;;;;;;5.47;100.00;102222.03;5014204;28;20033;-92
2022/11/30 04:09:15;;;;;;;42.65;16.45;;;;;;;5.46;100.00;102218.53;5014462;28;20113;-92
2022/11/30 04:11:40;;;;;;;38.87;15.90;;;;;;;5.46;100.00;102223.03;5014643;28;20038;-92
2022/11/30 04:14:06;;;;;;;46.50;15.47;;;;;;;5.43;100.00;102218.91;5013669;28;20080;-92
2022/11/30 04:16:31;;;;;;;39.97;15.27;;;;;;;5.44;100.00;102220.56;5014731;28;20033;-92
2022/11/30 04:18:56;;;;;;;40.90;16.03;;;;;;;5.41;100.00;102214.78;5013613;28;20096;-93
2022/11/30 04:21:22;;;;;;;41.03;16.20;;;;;;;5.43;100.00;102218.09;5015018;28;20026;-92
2022/11/30 04:23:47;;;;;;;49.70;16.47;;;;;;;5.42;100.00;102221.75;5013357;28;20068;-92
2022/11/30 04:26:14;;;;;;;43.53;15.98;;;;;;;5.40;100.00;102215.81;5016311;28;20058;-92
2022/11/30 04:28:40;;;;;;;44.27;16.07;;;;;;;5.40;100.00;102227.25;5015561;28;20069;-92
2022/11/30 04:31:06;;;;;;;43.75;16.70;;;;;;;5.39;100.00;102220.28;5013332;28;20531;-91
2022/11/30 04:33:31;;;;;;;39.70;15.13;;;;;;;5.39;100.00;102216.81;5015011;28;20118;-91
2022/11/30 04:36:00;;;;;;;46.93;17.40;;;;;;;5.40;100.00;102224.59;5013685;28;20062;-92
2022/11/30 04:38:26;;;;;;;48.97;17.00;;;;;;;5.37;100.00;102224.16;5010993;28;20025;-91
2022/11/30 04:40:52;;;;;;;44.20;16.05;;;;;;;5.36;100.00;102220.69;5013434;28;20056;-92
2022/11/30 04:43:21;;;;;;;48.50;17.10;;;;;;;5.36;100.00;102219.84;5013554;28;20632;-91
2022/11/30 04:45:47;;;;;;;49.72;17.00;;;;;;;5.36;100.00;102227.81;5018525;28;20019;-93
2022/11/30 04:48:13;;;;;;;46.88;16.73;;;;;;;5.33;100.00;102220.22;5016353;28;20053;-90
2022/11/30 04:50:39;;;;;;;40.33;16.88;;;;;;;5.32;100.00;102224.72;5013452;28;20036;-93
2022/11/30 04:53:07;;;;;;;45.23;17.30;;;;;;;5.31;100.00;102231.84;5014649;28;20471;-94
2022/11/30 04:55:32;;;;;;;43.45;16.70;;;;;;;5.31;100.00;102223.88;5014241;28;20088;-92
2022/11/30 04:57:58;;;;;;;40.93;15.77;;;;;;;5.27;100.00;102222.63;5016064;28;20025;-92
2022/11/30 05:00:24;;;;;;;48.70;16.83;;;;;;;5.28;100.00;102221.63;5038145;28;20006;-93
2022/11/30 05:02:49;;;;;;;43.80;16.33;;;;;;;5.28;100.00;102229.59;5036482;28;20018;-92
2022/11/30 05:05:15;;;;;;;41.95;15.90;;;;;;;5.27;100.00;102227.13;5037353;28;20089;-96
2022/11/30 05:07:40;;;;;;;43.93;16.03;;;;;;;5.20;100.00;102215.59;5332507;23;20136;-95
2022/11/30 05:10:07;;;;;;;41.27;16.10;;;;;;;5.21;100.00;102219.88;5036954;28;20033;-93
2022/11/30 05:12:32;;;;;;;49.75;16.08;;;;;;;5.11;100.00;102226.34;5025065;28;20045;-93
2022/11/30 05:14:57;;;;;;;44.70;16.10;;;;;;;5.07;100.00;102224.25;5034036;28;20033;-94
2022/11/30 05:17:23;;;;;;;42.47;15.80;;;;;;;5.03;100.00;102238.91;5016787;28;20045;-93
2022/11/30 05:19:48;;;;;;;45.35;15.88;;;;;;;4.95;100.00;102235.31;5027553;28;20845;-92
2022/11/30 05:22:13;;;;;;;45.33;15.73;;;;;;;4.94;100.00;102239.00;5044782;28;20028;-95
2022/11/30 05:24:39;;;;;;;43.17;15.80;;;;;;;4.92;100.00;102235.72;5051969;28;20025;-94
2022/11/30 05:27:04;;;;;;;38.33;16.80;;;;;;;4.91;100.00;102234.06;5039295;28;20045;-95
2022/11/30 05:29:30;;;;;;;42.53;15.10;;;;;;;4.95;100.00;102242.50;5025168;28;20330;-89
2022/11/30 05:31:55;;;;;;;42.93;14.97;;;;;;;4.96;100.00;102241.47;5023025;28;20018;-92
2022/11/30 05:34:20;;;;;;;45.83;16.07;;;;;;;4.98;100.00;102250.09;5027338;28;20010;-94
2022/11/30 05:36:46;;;;;;;39.13;15.65;;;;;;;4.96;100.00;102239.63;5035577;28;20056;-91
2022/11/30 05:39:11;;;;;;;39.47;15.20;;;;;;;4.98;100.00;102248.25;5034162;28;20029;-94
2022/11/30 05:41:39;;;;;;;37.00;15.27;;;;;;;5.00;100.00;102240.91;5036092;28;20022;-93
2022/11/30 05:44:05;;;;;;;48.70;16.75;;;;;;;4.98;100.00;102244.78;5035213;28;20017;-93
2022/11/30 05:46:30;;;;;;;47.70;17.50;;;;;;;5.02;100.00;102253.19;5031418;28;20054;-95
2022/11/30 05:48:56;;;;;;;46.40;16.57;;;;;;;4.99;100.00;102252.56;5011418;28;20045;-93
2022/11/30 05:51:21;;;;;;;43.20;15.67;;;;;;;5.02;100.00;102253.19;5014023;28;20105;-91
2022/11/30 05:53:47;;;;;;;43.17;15.73;;;;;;;4.99;100.00;102252.56;5006853;28;20056;-92
2022/11/30 05:56:16;;;;;;;39.83;16.37;;;;;;;4.97;100.00;102256.41;5012490;28;20040;-92
2022/11/30 05:58:43;;;;;;;42.75;16.25;;;;;;;4.96;100.00;102258.22;5010858;28;20029;-93
2022/11/30 06:01:20;;;;;;;48.95;17.20;;;;;;;4.96;100.00;102257.41;5012608;28;20032;-93
2022/11/30 06:03:46;;;;;;;44.40;16.88;;;;;;;4.97;100.00;102262.53;5011043;28;20030;-92
2022/11/30 06:06:12;;;;;;;39.40;15.73;;;;;;;4.98;100.00;102263.38;5002292;28;20386;-91
2022/11/30 06:08:37;;;;;;;44.22;16.33;;;;;;;4.93;100.00;102258.59;5010956;28;20087;-93
2022/11/30 06:11:03;;;;;;;41.23;16.10;;;;;;;4.94;100.00;102256.78;5012349;28;20030;-92
2022/11/30 06:13:30;;;;;;;38.67;16.00;;;;;;;4.93;100.00;102260.44;5012344;28;20563;-94
2022/11/30 06:16:00;;;;;;;41.63;16.33;;;;;;;4.92;100.00;102264.94;5011235;28;20033;-93
2022/11/30 06:18:26;;;;;;;48.72;17.23;;;;;;;4.89;100.00;102260.00;5009939;28;20488;-91
2022/11/30 06:20:54;;;;;;;40.33;16.05;;;;;;;4.92;100.00;102262.28;5012500;28;20121;-96
2022/11/30 06:23:19;;;;;;;38.83;16.23;;;;;;;4.91;100.00;102263.28;5014982;28;20022;-92
2022/11/30 06:25:45;;;;;;;43.87;16.47;;;;;;;4.91;100.00;102263.28;5014461;28;20068;-92
2022/11/30 06:28:12;;;;;;;47.30;17.23;;;;;;;4.92;100.00;102269.41;5013943;28;20030;-94
2022/11/30 06:30:37;;;;;;;42.25;15.90;;;;;;;4.91;100.00;102260.63;5013311;28;20040;-92
2022/11/30 06:33:03;;;;;;;46.90;17.30;;;;;;;4.92;100.00;102264.94;5011362;28;20034;-94
2022/11/30 06:35:28;;;;;;;43.88;16.48;;;;;;;4.92;100.00;102261.44;5011728;28;20044;-95
2022/11/30 06:37:54;;;;;;;45.53;17.77;;;;;;;4.94;100.00;102270.06;5012324;28;20022;-93
2022/11/30 06:40:19;;;;;;;44.87;16.53;;;;;;;4.92;100.00;102267.59;5011878;28;20576;-95
2022/11/30 06:42:46;;;;;;;45.10;17.17;;;;;;;4.92;100.00;102259.63;5012838;28;20030;-93
2022/11/30 06:45:12;;;;;;;44.53;16.13;;;;;;;4.97;100.00;102278.47;5013313;28;20052;-94
2022/11/30 06:47:37;;;;;;;48.03;16.95;;;;;;;4.95;100.00;102264.56;5014853;28;20022;-92
2022/11/30 06:50:03;;;;;;;48.37;16.53;;;;;;;4.97;100.00;102270.50;5012294;28;20088;-92
2022/11/30 06:52:30;;;;;;;44.22;16.42;;;;;;;4.97;100.00;102280.31;5012062;28;20032;-92
2022/11/30 06:54:55;;;;;;;43.65;16.85;;;;;;;4.95;100.00;102269.88;5012529;28;20053;-92
2022/11/30 06:57:28;;;;;;;45.90;16.77;;;;;;;4.96;100.00;102274.16;5012738;28;20076;-92
2022/11/30 06:59:54;;;;;;;49.45;17.10;;;;;;;4.88;100.00;102274.28;5007994;28;20080;-93
2022/11/30 07:02:19;;;;;;;42.50;15.70;;;;;;;4.93;100.00;102285.16;5000469;28;20068;-92
2022/11/30 07:04:45;;;;;;;44.70;16.60;;;;;;;4.95;100.00;102283.16;5003658;28;20022;-93
2022/11/30 07:07:10;;;;;;;46.60;16.93;;;;;;;4.97;100.00;102288.28;5004913;28;20409;-93
2022/11/30 07:09:36;;;;;;;47.60;17.10;;;;;;;4.97;100.00;102285.63;5019733;28;20060;-93
2022/11/30 07:12:02;;;;;;;50.08;16.85;;;;;;;4.94;100.00;102278.03;5026028;28;20037;-93
2022/11/30 07:14:28;;;;;;;43.53;16.05;;;;;;;4.95;100.00;102293.78;5005128;28;20088;-96
2022/11/30 07:16:55;;;;;;;46.80;16.90;;;;;;;4.92;100.00;102291.50;5010261;28;20029;-93
2022/11/30 07:19:20;;;;;;;49.57;17.40;;;;;;;4.91;100.00;102291.69;5013342;28;20288;-93
2022/11/30 07:21:45;;;;;;;50.60;17.00;;;;;;;4.84;100.00;102288.94;5010520;28;20026;-90
2022/11/30 07:26:57;;;;;;;47.40;17.63;;;;;;;4.87;100.00;102303.66;4995596;28;20064;-95
2022/11/30 07:29:22;;;;;;;45.00;17.13;;;;;;;4.90;100.00;102306.81;4994263;28;20285;-95
2022/11/30 07:31:52;;;;;;;45.05;16.42;;;;;;;4.90;100.00;102312.13;5005665;28;20044;-95
2022/11/30 07:34:17;;;;;;;47.57;16.47;;;;;;;4.91;100.00;102312.94;5016152;28;20113;-94
2022/11/30 07:36:43;;;;;;;48.50;17.13;;;;;;;4.91;100.00;102315.59;5026603;28;20284;-94
2022/11/30 07:39:09;;;;;;;47.85;16.88;;;;;;;4.88;100.00;102314.13;5028425;28;20076;-93
2022/11/30 07:41:34;;;;;;;46.17;16.83;;;;;;;4.90;100.00;102319.25;5024791;28;20105;-95
2022/11/30 07:43:59;;;;;;;45.80;17.60;;;;;;;4.92;100.00;102320.72;5025852;28;20022;-94
2022/11/30 07:46:25;;;;;;;46.78;17.92;;;;;;;4.99;100.00;102326.13;5022000;28;20022;-95
2022/11/30 07:48:50;;;;;;;50.67;17.43;;;;;;;5.04;100.00;102328.22;5023510;28;20033;-95
2022/11/30 07:51:18;;;;;;;52.33;18.20;;;;;;;5.09;100.00;102328.50;5016556;28;20033;-94
2022/11/30 07:53:44;;;;;;;56.08;19.55;;;;;;;5.09;100.00;102323.19;5016624;28;20038;-94
2022/11/30 07:56:11;;;;;;;58.40;20.30;;;;;;;5.08;100.00;102322.34;5018038;28;20501;-95
2022/11/30 07:58:37;;;;;;;53.47;19.20;;;;;;;5.14;100.00;102331.41;5022294;28;20018;-96
2022/11/30 08:01:08;;;;;;;50.20;18.63;;;;;;;5.14;100.00;102332.25;5019100;28;20125;-96
2022/11/30 08:03:35;;;;;;;49.70;19.07;;;;;;;5.18;100.00;102331.91;5020496;28;20324;-95
2022/11/30 08:06:02;;;;;;;52.08;18.35;;;;;;;5.19;100.00;102333.56;5016741;28;20103;-95
2022/11/30 08:08:30;;;;;;;56.10;19.73;;;;;;;5.18;100.00;102338.03;5020682;28;20084;-96
2022/11/30 08:10:56;;;;;;;57.13;19.95;;;;;;;5.23;100.00;102340.13;5022867;28;20380;-96
2022/11/30 08:13:21;;;;;;;58.63;20.30;;;;;;;5.26;100.00;102345.91;5027445;28;20088;-96
2022/11/30 08:15:49;;;;;;;58.03;19.73;;;;;;;5.35;100.00;102340.47;5027299;28;20022;-94
2022/11/30 08:18:14;;;;;;;63.47;22.33;;;;;;;5.35;100.00;102343.13;5021817;28;20034;-95
2022/11/30 08:20:39;;;;;;;58.73;20.40;;;;;;;5.40;100.00;102351.38;5027236;28;20029;-96
2022/11/30 08:23:04;;;;;;;63.60;20.83;;;;;;;5.37;100.00;102341.97;5027644;23;20124;-96
2022/11/30 08:25:30;;;;;;;66.70;21.63;;;;;;;5.35;100.00;102351.94;5023395;28;20022;-94
2022/11/30 08:27:55;;;;;;;57.53;21.02;;;;;;;5.26;100.00;102345.91;5020132;28;20092;-96
2022/11/30 08:30:21;;;;;;;58.33;20.20;;;;;;;5.19;100.00;102354.81;5014426;28;20031;-96
2022/11/30 08:32:46;;;;;;;55.90;21.07;;;;;;;5.14;100.00;102352.69;5017773;28;20032;-96
2022/11/30 08:35:12;;;;;;;57.55;20.33;;;;;;;5.10;100.00;102349.56;5029870;28;20029;-94
2022/11/30 08:37:37;;;;;;;56.20;20.27;;;;;;;5.09;100.00;102363.06;5015040;28;20619;-95
2022/11/30 08:40:06;;;;;;;60.73;20.87;;;;;;;5.11;100.00;102359.19;5018117;28;20026;-94
2022/11/30 08:42:31;;;;;;;59.60;20.92;;;;;;;5.15;100.00;102362.31;5014356;28;20030;-95
2022/11/30 08:44:56;;;;;;;62.73;21.67;;;;;;;5.13;100.00;102366.97;5013590;28;20080;-95
2022/11/30 08:47:22;;;;;;;61.93;21.23;;;;;;;5.09;100.00;102376.34;5014476;28;20049;-95
2022/11/30 08:49:48;;;;;;;59.70;21.77;;;;;;;4.96;100.00;102375.13;5000925;28;20121;-94
2022/11/30 08:52:14;;;;;;;56.83;20.40;;;;;;;4.86;100.00;102371.91;5001106;28;20474;-95
2022/11/30 08:54:44;;;;;;;60.75;21.23;;;;;;;4.78;100.00;102370.16;5005427;28;20033;-95
2022/11/30 08:57:10;;;;;;;56.07;19.87;;;;;;;4.56;100.00;102361.25;5023897;23;20129;-95
2022/11/30 09:03:04;;;;;;;53.03;20.15;;;;;;;4.58;100.00;102380.47;5019991;28;20048;-94
2022/11/30 09:09:25;;;;;;;55.63;19.67;;;;;;;4.62;100.00;102387.06;5546810;23;20097;-95
2022/11/30 09:15:26;;;;;;;65.35;20.42;;;;;;;4.67;100.00;102384.72;5009001;28;20037;-95
2022/11/30 09:18:04;;;;;;;62.45;21.77;;;;;;;4.55;100.00;102370.22;5019741;28;20026;-96
2022/11/30 09:31:10;;;;;;;80.97;24.30;;;;;;;4.68;100.00;102393.47;5458545;23;20293;-96
2022/11/30 09:42:22;;;;;;;93.40;28.73;;;;;;;5.30;100.00;102405.66;5382577;23;20069;-96
2022/11/30 09:45:09;;;;;;;101.35;30.13;;;;;;;5.53;100.00;102403.91;5010956;28;20026;-96
2022/11/30 09:48:16;;;;;;;105.68;32.00;;;;;;;5.75;100.00;102404.78;5370565;23;20053;-96
2022/11/30 09:56:33;;;;;;;;;;;;;;;;;;;;;
2022/11/30 10:02:10;;;;;;;;;;;;;;;;;;;;;
2022/11/30 10:24:00;;;;;;;73.30;26.80;;;;;;;6.92;100.00;102365.53;5438041;23;20046;-96
2022/11/30 10:29:24;;;;;;;57.97;24.20;;;;;;;7.02;100.00;102378.50;5937171;23;20045;-94
2022/11/30 10:32:18;;;;;;;58.60;23.70;;;;;;;7.19;100.00;102386.19;5020606;28;20037;-94
2022/11/30 10:35:29;;;;;;;;;;;;;;;;;;;;;
2022/11/30 10:38:05;;;;;;;55.47;23.90;;;;;;;7.14;100.00;102365.47;4991025;28;20064;-96
2022/11/30 10:40:52;;;;;;;52.00;21.58;;;;;;;7.35;100.00;102379.72;5013265;28;20034;-96
2022/11/30 10:43:42;;;;;;;44.58;20.65;;;;;;;7.39;100.00;102373.78;5002122;28;20052;-96
2022/11/30 10:46:31;;;;;;;46.58;21.05;;;;;;;7.34;100.00;102362.88;4996730;28;20054;-94
2022/11/30 10:51:26;;;;;;;34.47;18.73;;;;;;;7.35;100.00;102369.06;5002080;28;20054;-95
2022/11/30 10:54:22;;;;;;;36.93;18.23;;;;;;;7.39;100.00;102372.97;4998428;28;20339;-96
2022/11/30 10:57:08;;;;;;;34.00;18.08;;;;;;;7.37;100.00;102377.69;5021630;28;20046;-96
2022/11/30 11:00:13;;;;;;;34.60;18.05;;;;;;;7.24;100.00;102357.09;5019039;28;20026;-95
2022/11/30 11:02:41;;;;;;;28.38;16.15;;;;;;;7.19;100.00;102364.88;5011728;28;20045;-96
2022/11/30 11:05:17;;;;;;;30.40;16.10;;;;;;;7.28;100.00;102375.16;5031621;28;20014;-94
2022/11/30 11:08:36;;;;;;;27.08;15.32;;;;;;;7.39;100.00;102376.44;5016756;28;20022;-96
2022/11/30 11:11:02;;;;;;;35.20;17.10;;;;;;;7.41;100.00;102374.41;4972882;28;20070;-95
2022/11/30 11:13:38;;;;;;;30.70;16.47;;;;;;;7.47;100.00;102374.66;5006251;28;20284;-96
2022/11/30 11:16:10;;;;;;;29.98;16.67;;;;;;;7.43;100.00;102364.38;5014913;28;20029;-96
2022/11/30 11:18:50;;;;;;;30.02;15.18;;;;;;;7.40;100.00;102372.78;5014565;28;20121;-96
2022/11/30 11:21:16;;;;;;;33.47;17.33;;;;;;;7.31;100.00;102368.59;5014746;28;20045;-96
2022/11/30 11:23:43;;;;;;;32.63;17.70;;;;;;;7.26;100.00;102368.41;5014576;28;20038;-96
2022/11/30 11:26:18;;;;;;;35.97;18.17;;;;;;;7.30;100.00;102372.31;5015335;28;20279;-96
2022/11/30 11:28:47;;;;;;;33.67;17.83;;;;;;;7.30;100.00;102371.47;5013232;28;20539;-96
2022/11/30 11:31:36;;;;;;;36.90;18.77;;;;;;;7.42;100.00;102362.72;5017307;28;20036;-96
2022/11/30 11:34:03;;;;;;;37.88;17.88;;;;;;;7.51;100.00;102378.53;5017916;28;20010;-95
2022/11/30 11:36:31;;;;;;;34.88;18.65;;;;;;;7.52;100.00;102373.03;5017605;28;20026;-96
2022/11/30 11:38:57;;;;;;;33.85;17.73;;;;;;;7.42;100.00;102373.41;5003646;28;20038;-96
2022/11/30 11:41:32;;;;;;;33.50;17.90;;;;;;;7.41;100.00;102374.41;5009733;28;20122;-95
2022/11/30 11:44:09;;;;;;;34.97;18.80;;;;;;;7.33;100.00;102373.75;5009418;28;20027;-96
2022/11/30 11:46:50;;;;;;;34.10;18.33;;;;;;;7.28;100.00;102379.69;5020998;28;20384;-96
2022/11/30 11:49:26;;;;;;;36.22;17.83;;;;;;;7.22;100.00;102375.13;5024730;28;20477;-95
2022/11/30 11:52:09;;;;;;;41.05;19.13;;;;;;;7.11;100.00;102372.03;5025466;28;20034;-95
2022/11/30 11:54:50;;;;;;;36.13;18.42;;;;;;;6.97;100.00;102380.94;5027695;28;20022;-96
2022/11/30 12:00:54;;;;;;;;;;;;;;;;;;;;;
2022/11/30 12:06:30;;;;;;;43.80;21.23;;;;;;;6.23;100.00;102356.41;5473803;23;20325;-96
2022/11/30 12:09:27;;;;;;;42.28;20.95;;;;;;;6.19;100.00;102355.97;5010170;28;20015;-96
2022/11/30 12:11:52;;;;;;;35.67;18.38;;;;;;;6.19;100.00;102355.97;5028661;28;20122;-95
2022/11/30 12:14:18;;;;;;;42.50;20.33;;;;;;;6.29;100.00;102365.47;5035880;28;20038;-96
2022/11/30 12:20:50;;;;;;;38.75;19.23;;;;;;;6.43;100.00;102364.56;4959489;29;20043;-96
2022/11/30 12:24:06;;;;;;;36.47;19.73;;;;;;;6.46;100.00;102382.81;5015352;28;20017;-96
2022/11/30 12:27:17;;;;;;;40.53;20.00;;;;;;;6.46;100.00;102388.13;5001776;28;20498;-96
2022/11/30 12:30:22;;;;;;;34.47;18.67;;;;;;;6.47;100.00;102363.16;5001336;28;20316;-96
2022/11/30 12:42:36;;;;;;;35.22;17.50;;;;;;;6.52;100.00;102381.22;5062060;23;20049;-96
2022/11/30 12:45:18;;;;;;;31.38;18.20;;;;;;;6.45;100.00;102378.50;4995315;28;20031;-96
2022/11/30 12:48:33;;;;;;;32.95;16.40;;;;;;;6.54;100.00;102370.38;5011675;28;20018;-96
2022/11/30 12:51:32;;;;;;;32.97;16.60;;;;;;;6.74;100.00;102383.84;5017990;28;20038;-96